Nail, Arkansas
Current Conditions -  °F | °C
As of 4:53 AM on Sunday 21 Dec 2014 (Local Time) from KHRO Reporting Station
Haze Haze  
Wind Chill: 34°   Ceiling: 2200
Heat Index: 39°   Visibility: 5mi
Dew Point: 38°   Wind: 7mph
Humidity: 96%   Direction: 140°SE
Pressure: 30.14"   Gusts: NA
Location:  35.8413°N, 93.3507°W
Report Text: KHRO 211053Z AUTO 14006KT 5SM BR OVC022 04/03 A3014 RMK AO2 SLP210 T00390033 $
Loading
Personal Weather Stations






























Interactive Weather Map New forecast layout! Learn more

10-Day Weather Forecast

Advertisements
Track Severe Weather on mobile